createdAt,value
2023-02-21T00:02:00.993Z,8.01
2023-02-21T00:04:46.898Z,8.11
2023-02-21T00:07:31.928Z,8.06
2023-02-21T00:10:17.438Z,8.17
2023-02-21T00:13:02.508Z,8.05
2023-02-21T00:15:47.752Z,8.02
2023-02-21T00:18:33.009Z,7.97
2023-02-21T00:21:18.290Z,7.86
2023-02-21T00:24:03.713Z,8.02
2023-02-21T00:26:49.134Z,7.77
2023-02-21T00:29:34.248Z,7.89
2023-02-21T00:32:19.414Z,7.68
2023-02-21T00:35:04.666Z,7.69
2023-02-21T00:37:50.142Z,7.64
2023-02-21T00:40:35.676Z,7.67
2023-02-21T00:43:21.045Z,7.61
2023-02-21T00:46:06.408Z,7.35
2023-02-21T00:48:51.512Z,7.41
2023-02-21T00:51:36.905Z,7.42
2023-02-21T00:54:22.639Z,7.33
2023-02-21T00:57:07.738Z,7.39
2023-02-21T00:59:52.657Z,7.33
2023-02-21T01:02:38.129Z,7.32
2023-02-21T01:05:23.805Z,7.26
2023-02-21T01:08:09.182Z,7.24
2023-02-21T01:10:54.066Z,7.23
2023-02-21T01:13:39.454Z,6.90
2023-02-21T01:16:26.578Z,7.01
2023-02-21T01:19:11.852Z,6.77
2023-02-21T01:21:57.368Z,6.82
2023-02-21T01:24:42.757Z,6.80
2023-02-21T01:27:28.109Z,6.74
2023-02-21T01:30:13.246Z,6.61
2023-02-21T01:32:58.662Z,6.58
2023-02-21T01:35:43.966Z,6.50
2023-02-21T01:38:29.301Z,6.52
2023-02-21T01:41:14.910Z,6.56
2023-02-21T01:44:17.278Z,6.68
2023-02-21T01:47:02.567Z,6.49
2023-02-21T01:49:48.978Z,6.61
2023-02-21T01:52:36.306Z,6.33
2023-02-21T01:55:22.701Z,6.58
2023-02-21T01:58:09.320Z,6.63
2023-02-21T02:00:54.982Z,6.73
2023-02-21T02:03:40.475Z,6.55
2023-02-21T02:06:28.371Z,6.32
2023-02-21T02:09:13.417Z,6.16
2023-02-21T02:12:21.664Z,6.40
2023-02-21T02:14:48.194Z,6.28
2023-02-21T02:18:02.259Z,6.14
2023-02-21T02:20:38.453Z,6.17
2023-02-21T02:23:23.663Z,6.21
2023-02-21T02:26:28.813Z,6.05
2023-02-21T02:29:26.317Z,5.78
2023-02-21T02:32:17.651Z,6.26
2023-02-21T02:34:44.318Z,6.21
2023-02-21T02:37:16.980Z,6.28
2023-02-21T02:40:08.318Z,6.07
2023-02-21T02:43:21.629Z,6.11
2023-02-21T02:45:51.902Z,6.28
2023-02-21T02:48:36.835Z,6.31
2023-02-21T02:51:08.342Z,6.29
2023-02-21T02:53:36.141Z,6.39
2023-02-21T02:56:05.886Z,6.33
2023-02-21T02:58:43.695Z,6.40
2023-02-21T03:01:38.206Z,6.45
2023-02-21T03:04:38.536Z,6.58
2023-02-21T03:07:10.919Z,6.39
2023-02-21T03:09:46.695Z,6.47
2023-02-21T03:12:54.055Z,6.58
2023-02-21T03:15:44.588Z,6.74
2023-02-21T03:18:21.399Z,6.61
2023-02-21T03:20:55.046Z,6.59
2023-02-21T03:23:23.919Z,6.72
2023-02-21T03:25:52.249Z,6.70
2023-02-21T03:28:20.906Z,6.67
2023-02-21T03:30:51.671Z,6.76
2023-02-21T03:33:18.431Z,6.73
2023-02-21T03:35:45.318Z,6.69
2023-02-21T03:38:12.047Z,6.76
2023-02-21T03:40:38.753Z,6.55
2023-02-21T03:43:09.156Z,6.56
2023-02-21T03:45:36.443Z,6.57
2023-02-21T03:48:04.161Z,6.65
2023-02-21T03:50:30.778Z,6.60
2023-02-21T03:52:57.394Z,6.69
2023-02-21T03:55:24.118Z,6.61
2023-02-21T03:57:50.778Z,6.60
2023-02-21T04:00:17.667Z,6.61
2023-02-21T04:02:44.807Z,6.64
2023-02-21T04:05:12.057Z,6.67
2023-02-21T04:07:38.679Z,6.73
2023-02-21T04:10:05.574Z,6.63
2023-02-21T04:12:32.174Z,6.72
2023-02-21T04:14:58.801Z,6.78
2023-02-21T04:17:26.039Z,6.82
2023-02-21T04:19:52.683Z,6.94
2023-02-21T04:22:19.503Z,6.99
2023-02-21T04:24:48.173Z,6.96
2023-02-21T04:27:15.833Z,6.88
2023-02-21T04:29:42.722Z,6.92
2023-02-21T04:32:11.023Z,6.97
2023-02-21T04:34:37.775Z,6.99
2023-02-21T04:37:04.579Z,6.88
2023-02-21T04:39:31.241Z,6.98
2023-02-21T04:41:58.070Z,7.11
2023-02-21T04:44:24.754Z,6.67
2023-02-21T04:46:51.479Z,6.70
2023-02-21T04:49:18.930Z,6.72
2023-02-21T04:51:45.560Z,6.78
2023-02-21T04:54:13.975Z,6.85
2023-02-21T04:56:40.865Z,6.95
2023-02-21T04:59:07.599Z,7.04
2023-02-21T05:01:34.454Z,7.02
2023-02-21T05:04:01.232Z,7.10
2023-02-21T05:06:30.162Z,7.22
2023-02-21T05:08:57.828Z,7.17
2023-02-21T05:11:24.987Z,7.11
2023-02-21T05:13:52.311Z,7.10
2023-02-21T05:16:19.935Z,7.18
2023-02-21T05:18:48.356Z,7.10
2023-02-21T05:21:16.536Z,7.13
2023-02-21T05:23:55.991Z,7.10
2023-02-21T05:26:25.923Z,6.86
2023-02-21T05:28:52.953Z,6.87
2023-02-21T05:31:19.853Z,6.79
2023-02-21T05:33:46.591Z,6.83
2023-02-21T05:36:13.313Z,6.38
2023-02-21T05:38:48.349Z,6.56
2023-02-21T05:41:16.719Z,6.34
2023-02-21T05:43:45.609Z,6.32
2023-02-21T05:46:30.157Z,6.50
2023-02-21T05:48:58.579Z,6.02
2023-02-21T05:51:25.484Z,6.38
2023-02-21T05:53:52.357Z,6.17
2023-02-21T05:56:20.297Z,6.19
2023-02-21T05:58:47.300Z,6.23
2023-02-21T06:01:14.378Z,5.96
2023-02-21T06:03:41.342Z,6.00
2023-02-21T06:06:08.102Z,5.92
2023-02-21T06:08:43.182Z,5.85
2023-02-21T06:11:10.286Z,5.97
2023-02-21T06:13:36.889Z,6.13
2023-02-21T06:16:03.620Z,5.41
2023-02-21T06:18:30.246Z,5.55
2023-02-21T06:20:56.862Z,5.76
2023-02-21T06:23:23.441Z,5.74
2023-02-21T06:25:50.091Z,5.92
2023-02-21T06:28:16.723Z,5.81
2023-02-21T06:30:43.623Z,5.91
2023-02-21T06:33:10.295Z,5.83
2023-02-21T06:35:36.878Z,5.66
2023-02-21T06:38:03.609Z,5.83
2023-02-21T06:40:30.218Z,5.99
2023-02-21T06:42:56.828Z,5.99
2023-02-21T06:45:23.438Z,5.98
2023-02-21T06:47:50.101Z,6.06
2023-02-21T06:50:16.973Z,6.09
2023-02-21T06:52:43.617Z,6.04
2023-02-21T06:55:10.254Z,5.87
2023-02-21T06:57:36.871Z,5.69
2023-02-21T07:00:05.489Z,5.85
2023-02-21T07:02:32.198Z,5.88
2023-02-21T07:04:58.849Z,5.79
2023-02-21T07:07:25.506Z,5.58
2023-02-21T07:09:52.097Z,5.88
2023-02-21T07:12:18.707Z,6.06
2023-02-21T07:14:45.374Z,6.14
2023-02-21T07:17:12.018Z,6.20
2023-02-21T07:19:38.636Z,6.34
2023-02-21T07:22:05.262Z,6.40
2023-02-21T07:24:31.875Z,6.44
2023-02-21T07:26:59.106Z,6.47
2023-02-21T07:29:26.400Z,6.57
2023-02-21T07:31:53.170Z,6.63
2023-02-21T07:34:20.139Z,6.61
2023-02-21T07:36:46.840Z,6.55
2023-02-21T07:39:13.532Z,6.75
2023-02-21T07:41:40.185Z,6.82
2023-02-21T07:44:07.995Z,6.90
2023-02-21T07:46:34.952Z,6.90
2023-02-21T07:49:01.893Z,7.01
2023-02-21T07:51:30.071Z,6.95
2023-02-21T07:53:57.218Z,7.06
2023-02-21T07:56:24.395Z,7.16
2023-02-21T07:58:51.066Z,7.28
2023-02-21T08:01:18.052Z,7.44
2023-02-21T08:03:44.681Z,7.44
2023-02-21T08:06:11.691Z,7.24
2023-02-21T08:08:38.447Z,7.52
2023-02-21T08:11:05.226Z,7.98
2023-02-21T08:13:31.934Z,8.07
2023-02-21T08:15:58.618Z,8.38
2023-02-21T08:18:25.860Z,8.63
2023-02-21T08:20:53.927Z,9.34
2023-02-21T08:23:21.665Z,9.70
2023-02-21T08:25:48.813Z,10.10
2023-02-21T08:28:16.301Z,10.35
2023-02-21T08:30:43.179Z,10.71
2023-02-21T08:33:09.854Z,10.93
2023-02-21T08:35:36.562Z,11.25
2023-02-21T08:38:05.017Z,11.61
2023-02-21T08:40:31.781Z,11.60
2023-02-21T08:43:00.446Z,11.97
2023-02-21T08:45:28.535Z,12.03
2023-02-21T08:47:55.163Z,12.29
2023-02-21T08:50:24.116Z,12.27
2023-02-21T08:52:51.536Z,12.14
2023-02-21T08:55:19.797Z,12.43
2023-02-21T08:57:49.364Z,12.72
2023-02-21T09:00:17.698Z,12.95
2023-02-21T09:02:44.612Z,13.03
2023-02-21T09:05:15.157Z,13.16
2023-02-21T09:07:42.217Z,13.31
2023-02-21T09:10:11.158Z,13.05
2023-02-21T09:12:38.541Z,13.22
2023-02-21T09:15:06.755Z,13.32
2023-02-21T09:17:34.407Z,13.46
2023-02-21T09:20:05.054Z,13.70
2023-02-21T09:22:31.688Z,13.81
2023-02-21T09:24:59.096Z,14.29
2023-02-21T09:27:43.845Z,14.25
2023-02-21T09:30:20.451Z,14.23
2023-02-21T09:32:48.303Z,14.45
2023-02-21T09:35:15.498Z,14.82
2023-02-21T09:37:43.849Z,14.99
2023-02-21T09:40:24.411Z,15.03
2023-02-21T09:42:54.539Z,15.17
2023-02-21T09:45:22.488Z,15.14
2023-02-21T09:47:53.261Z,15.19
2023-02-21T09:50:27.860Z,15.20
2023-02-21T09:52:58.050Z,15.34
2023-02-21T09:55:32.065Z,15.30
2023-02-21T09:57:59.272Z,15.42
2023-02-21T10:00:37.558Z,15.73
2023-02-21T10:03:26.383Z,15.82
2023-02-21T10:06:18.255Z,15.87
2023-02-21T10:09:06.571Z,16.14
2023-02-21T10:11:37.428Z,16.01
2023-02-21T10:14:18.807Z,16.02
2023-02-21T10:17:25.448Z,16.49
2023-02-21T10:20:00.684Z,16.48
2023-02-21T10:22:33.601Z,16.71
2023-02-21T10:25:02.954Z,16.32
2023-02-21T10:27:33.023Z,16.54
2023-02-21T10:30:10.458Z,16.63
2023-02-21T10:32:38.149Z,16.74
2023-02-21T10:35:05.192Z,16.84
2023-02-21T10:37:40.806Z,17.15
2023-02-21T10:40:22.893Z,16.69
2023-02-21T10:42:54.545Z,16.82
2023-02-21T10:45:33.053Z,16.66
2023-02-21T10:48:09.161Z,16.99
2023-02-21T10:50:51.609Z,16.75
2023-02-21T10:53:29.000Z,16.95
2023-02-21T10:56:14.302Z,17.14
2023-02-21T10:58:57.934Z,17.31
2023-02-21T11:01:27.282Z,17.47
2023-02-21T11:04:04.815Z,17.74
2023-02-21T11:06:31.385Z,17.97
2023-02-21T11:08:59.080Z,18.10
2023-02-21T11:11:42.327Z,18.27
2023-02-21T11:14:17.706Z,18.52
2023-02-21T11:16:44.568Z,18.32
2023-02-21T11:19:14.704Z,18.44
2023-02-21T11:21:46.789Z,18.37
2023-02-21T11:24:13.505Z,18.79
2023-02-21T11:26:53.546Z,19.01
2023-02-21T11:29:25.839Z,19.22
2023-02-21T11:31:54.374Z,18.74
2023-02-21T11:34:21.729Z,18.42
2023-02-21T11:36:52.751Z,18.94
2023-02-21T11:39:32.628Z,19.24
2023-02-21T11:42:04.975Z,19.42
2023-02-21T11:44:35.273Z,19.64
2023-02-21T11:47:16.874Z,19.93
2023-02-21T11:49:43.410Z,20.07
2023-02-21T11:52:14.707Z,20.24
2023-02-21T11:54:41.967Z,19.49
2023-02-21T11:57:35.926Z,20.22
2023-02-21T12:00:14.636Z,20.83
2023-02-21T12:03:19.366Z,20.12
2023-02-21T12:05:45.930Z,20.52
2023-02-21T12:08:23.742Z,20.92
2023-02-21T12:11:16.577Z,21.24
2023-02-21T12:14:04.408Z,21.41
2023-02-21T12:16:43.201Z,21.85
2023-02-21T12:19:45.027Z,22.32
2023-02-21T12:22:41.563Z,22.44
2023-02-21T12:25:17.920Z,22.69
2023-02-21T12:28:07.736Z,22.74
2023-02-21T12:30:53.206Z,22.76
2023-02-21T12:33:28.531Z,22.94
2023-02-21T12:36:12.315Z,23.60
2023-02-21T12:38:54.888Z,23.45
2023-02-21T12:41:24.385Z,22.74
2023-02-21T12:44:15.309Z,22.99
2023-02-21T12:47:24.003Z,22.89
2023-02-21T12:50:12.363Z,22.54
2023-02-21T12:53:03.166Z,22.04
2023-02-21T12:55:43.049Z,22.96
2023-02-21T12:58:34.041Z,22.99
2023-02-21T13:01:21.930Z,23.43
2023-02-21T13:03:58.149Z,23.56
2023-02-21T13:06:28.967Z,23.11
2023-02-21T13:09:02.520Z,23.58
2023-02-21T13:11:49.843Z,23.91
2023-02-21T13:14:24.671Z,23.75
2023-02-21T13:16:53.406Z,23.24
2023-02-21T13:19:21.814Z,23.08
2023-02-21T13:21:54.247Z,22.57
2023-02-21T13:24:40.012Z,23.24
2023-02-21T13:27:30.981Z,22.83
2023-02-21T13:30:36.921Z,23.15
2023-02-21T13:33:03.978Z,23.02
2023-02-21T13:35:34.966Z,21.99
2023-02-21T13:38:04.549Z,21.66
2023-02-21T13:40:53.864Z,22.10
2023-02-21T13:43:25.452Z,22.49
2023-02-21T13:45:55.405Z,22.28
2023-02-21T13:48:28.170Z,22.24
2023-02-21T13:51:00.312Z,22.22
2023-02-21T13:53:33.947Z,21.92
2023-02-21T13:56:00.558Z,21.98
2023-02-21T13:58:30.468Z,22.01
2023-02-21T14:01:12.943Z,22.22
2023-02-21T14:03:39.904Z,22.27
2023-02-21T14:06:09.312Z,22.28
2023-02-21T14:08:45.450Z,22.12
2023-02-21T14:11:14.743Z,21.98
2023-02-21T14:13:56.421Z,21.68
2023-02-21T14:16:26.933Z,21.53
2023-02-21T14:18:56.640Z,21.53
2023-02-21T14:21:27.197Z,21.22
2023-02-21T14:24:00.100Z,21.03
2023-02-21T14:26:49.002Z,21.09
2023-02-21T14:29:27.537Z,20.66
2023-02-21T14:32:04.962Z,20.50
2023-02-21T14:34:55.996Z,20.39
2023-02-21T14:37:28.111Z,20.62
2023-02-21T14:40:12.843Z,20.47
2023-02-21T14:43:17.040Z,20.47
2023-02-21T14:46:09.882Z,20.45
2023-02-21T14:48:45.776Z,20.39
2023-02-21T14:51:27.300Z,20.33
2023-02-21T14:54:37.389Z,20.35
2023-02-21T14:57:13.419Z,20.53
2023-02-21T15:00:06.558Z,20.65
2023-02-21T15:02:54.799Z,20.78
2023-02-21T15:05:38.316Z,20.72
2023-02-21T15:08:05.090Z,20.97
2023-02-21T15:10:39.443Z,21.07
2023-02-21T15:13:06.408Z,20.48
2023-02-21T15:15:40.452Z,20.76
2023-02-21T15:18:12.648Z,20.90
2023-02-21T15:20:42.961Z,20.71
2023-02-21T15:23:29.702Z,20.78
2023-02-21T15:26:02.632Z,20.41
2023-02-21T15:28:31.651Z,20.62
2023-02-21T15:31:10.598Z,20.60
2023-02-21T15:33:39.600Z,20.79
2023-02-21T15:36:23.762Z,20.92
2023-02-21T15:38:55.720Z,21.07
2023-02-21T15:41:29.876Z,20.90
2023-02-21T15:44:15.771Z,20.19
2023-02-21T15:46:47.786Z,19.87
2023-02-21T15:49:38.421Z,19.43
2023-02-21T15:52:05.554Z,19.17
2023-02-21T15:54:38.545Z,19.70
2023-02-21T15:57:09.753Z,19.52
2023-02-21T15:59:37.436Z,19.92
2023-02-21T16:02:16.748Z,20.45
2023-02-21T16:04:48.217Z,20.60
2023-02-21T16:07:20.981Z,20.38
2023-02-21T16:09:58.379Z,19.69
2023-02-21T16:12:39.667Z,19.57
2023-02-21T16:15:19.330Z,19.38
2023-02-21T16:17:52.609Z,19.50
2023-02-21T16:20:24.851Z,19.89
2023-02-21T16:23:20.331Z,20.13
2023-02-21T16:26:17.909Z,20.13
2023-02-21T16:28:45.778Z,20.04
2023-02-21T16:31:18.408Z,19.95
2023-02-21T16:33:45.263Z,19.98
2023-02-21T16:36:22.700Z,19.99
2023-02-21T16:38:49.332Z,19.84
2023-02-21T16:41:16.625Z,19.56
2023-02-21T16:43:43.435Z,17.98
2023-02-21T16:46:10.155Z,17.82
2023-02-21T16:48:36.800Z,18.33
2023-02-21T16:51:07.536Z,18.51
2023-02-21T16:53:34.189Z,18.46
2023-02-21T16:56:01.846Z,18.32
2023-02-21T16:58:32.178Z,18.45
2023-02-21T17:01:02.671Z,18.08
2023-02-21T17:03:29.326Z,17.80
2023-02-21T17:05:58.029Z,17.72
2023-02-21T17:08:25.815Z,17.84
2023-02-21T17:10:52.528Z,17.85
2023-02-21T17:13:19.699Z,17.83
2023-02-21T17:15:47.831Z,17.75
2023-02-21T17:18:14.786Z,17.53
2023-02-21T17:20:41.551Z,17.01
2023-02-21T17:23:08.175Z,16.68
2023-02-21T17:25:36.553Z,16.64
2023-02-21T17:28:04.040Z,16.61
2023-02-21T17:30:31.591Z,16.54
2023-02-21T17:32:58.429Z,16.41
2023-02-21T17:35:25.072Z,16.32
2023-02-21T17:37:51.817Z,16.35
2023-02-21T17:40:20.318Z,16.21
2023-02-21T17:42:47.111Z,16.04
2023-02-21T17:45:17.634Z,15.60
2023-02-21T17:47:44.310Z,15.61
2023-02-21T17:50:11.410Z,15.53
2023-02-21T17:52:37.997Z,15.50
2023-02-21T17:55:08.028Z,14.82
2023-02-21T17:57:40.666Z,15.08
2023-02-21T18:00:13.574Z,15.00
2023-02-21T18:02:40.240Z,15.05
2023-02-21T18:05:08.738Z,14.77
2023-02-21T18:07:35.542Z,14.76
2023-02-21T18:10:04.455Z,14.84
2023-02-21T18:12:33.396Z,14.40
2023-02-21T18:15:01.035Z,14.11
2023-02-21T18:17:27.627Z,14.06
2023-02-21T18:19:54.411Z,14.18
2023-02-21T18:22:21.003Z,14.17
2023-02-21T18:24:47.707Z,14.17
2023-02-21T18:27:15.684Z,13.82
2023-02-21T18:29:42.308Z,13.62
2023-02-21T18:32:08.926Z,13.68
2023-02-21T18:34:35.523Z,13.56
2023-02-21T18:37:02.233Z,13.61
2023-02-21T18:39:28.834Z,13.50
2023-02-21T18:41:55.462Z,13.46
2023-02-21T18:44:22.122Z,13.42
2023-02-21T18:46:54.592Z,13.22
2023-02-21T18:49:24.831Z,13.28
2023-02-21T18:51:51.852Z,13.21
2023-02-21T18:54:19.184Z,13.09
2023-02-21T18:56:50.575Z,13.00
2023-02-21T18:59:20.208Z,12.96
2023-02-21T19:01:51.638Z,12.95
2023-02-21T19:04:18.674Z,12.84
2023-02-21T19:06:45.423Z,12.72
2023-02-21T19:09:12.540Z,12.56
2023-02-21T19:11:39.334Z,12.56
2023-02-21T19:14:05.953Z,12.21
2023-02-21T19:16:33.018Z,11.41
2023-02-21T19:19:00.057Z,11.21
2023-02-21T19:21:27.106Z,11.59
2023-02-21T19:23:53.699Z,11.88
2023-02-21T19:26:20.519Z,11.79
2023-02-21T19:28:47.448Z,11.86
2023-02-21T19:31:18.404Z,11.88
2023-02-21T19:33:45.289Z,11.96
2023-02-21T19:36:12.532Z,11.71
2023-02-21T19:38:39.150Z,11.73
2023-02-21T19:41:07.061Z,11.71
2023-02-21T19:43:34.565Z,11.37
2023-02-21T19:46:01.367Z,11.41
2023-02-21T19:48:28.126Z,11.17
2023-02-21T19:50:55.467Z,10.83
2023-02-21T19:53:22.087Z,10.80
2023-02-21T19:55:48.737Z,10.93
2023-02-21T19:58:15.389Z,10.94
2023-02-21T20:00:43.900Z,10.94
2023-02-21T20:03:11.347Z,10.98
2023-02-21T20:05:38.154Z,10.95
2023-02-21T20:08:05.178Z,10.77
2023-02-21T20:10:31.833Z,10.38
2023-02-21T20:12:58.655Z,10.54
2023-02-21T20:15:25.500Z,10.60
2023-02-21T20:17:53.758Z,10.63
2023-02-21T20:20:21.191Z,10.58
2023-02-21T20:22:47.803Z,10.28
2023-02-21T20:25:14.418Z,10.36
2023-02-21T20:27:41.933Z,9.98
2023-02-21T20:30:09.896Z,10.12
2023-02-21T20:32:36.653Z,10.10
2023-02-21T20:35:03.880Z,10.21
2023-02-21T20:37:32.603Z,10.15
2023-02-21T20:39:59.807Z,10.19
2023-02-21T20:42:26.647Z,10.16
2023-02-21T20:44:53.397Z,10.12
2023-02-21T20:47:20.101Z,9.64
2023-02-21T20:49:47.788Z,9.34
2023-02-21T20:52:15.678Z,8.98
2023-02-21T20:54:43.043Z,9.18
2023-02-21T20:57:09.932Z,9.37
2023-02-21T20:59:39.006Z,9.42
2023-02-21T21:02:06.617Z,9.62
2023-02-21T21:04:36.100Z,9.62
2023-02-21T21:07:08.839Z,9.51
2023-02-21T21:09:35.892Z,9.52
2023-02-21T21:12:07.362Z,9.55
2023-02-21T21:14:37.476Z,9.50
2023-02-21T21:17:04.639Z,8.84
2023-02-21T21:19:35.104Z,8.69
2023-02-21T21:22:07.205Z,8.75
2023-02-21T21:24:33.882Z,8.59
2023-02-21T21:27:07.024Z,8.71
2023-02-21T21:29:36.502Z,8.89
2023-02-21T21:32:05.442Z,8.69
2023-02-21T21:34:33.356Z,8.29
2023-02-21T21:37:03.796Z,8.54
2023-02-21T21:39:31.629Z,8.49
2023-02-21T21:42:05.176Z,8.65
2023-02-21T21:44:32.771Z,8.71
2023-02-21T21:47:01.088Z,8.71
2023-02-21T21:49:31.053Z,8.73
2023-02-21T21:51:58.018Z,8.75
2023-02-21T21:54:26.745Z,8.74
2023-02-21T21:56:55.212Z,8.76
2023-02-21T21:59:24.341Z,8.68
2023-02-21T22:01:51.637Z,8.59
2023-02-21T22:04:19.212Z,8.66
2023-02-21T22:06:47.041Z,8.72
2023-02-21T22:09:17.773Z,8.74
2023-02-21T22:11:46.647Z,8.53
2023-02-21T22:14:17.035Z,8.48
2023-02-21T22:16:45.331Z,8.39
2023-02-21T22:19:11.982Z,8.34
2023-02-21T22:21:38.606Z,8.17
2023-02-21T22:24:07.453Z,8.11
2023-02-21T22:26:34.062Z,8.35
2023-02-21T22:29:00.696Z,7.87
2023-02-21T22:31:27.776Z,7.93
2023-02-21T22:33:59.269Z,8.02
2023-02-21T22:36:26.552Z,8.15
2023-02-21T22:38:55.929Z,8.13
2023-02-21T22:41:31.759Z,8.13
2023-02-21T22:43:58.678Z,8.04
2023-02-21T22:46:27.839Z,7.94
2023-02-21T22:48:55.531Z,7.98
2023-02-21T22:51:27.719Z,7.97
2023-02-21T22:53:54.570Z,7.89
2023-02-21T22:56:24.786Z,7.93
2023-02-21T22:58:55.082Z,7.76
2023-02-21T23:01:28.600Z,7.79
2023-02-21T23:04:10.760Z,7.85
2023-02-21T23:06:38.216Z,7.81
2023-02-21T23:09:12.272Z,7.80
2023-02-21T23:11:46.404Z,7.75
2023-02-21T23:14:16.026Z,7.85
2023-02-21T23:16:43.345Z,7.91
2023-02-21T23:19:11.049Z,8.07
2023-02-21T23:21:49.373Z,8.06
2023-02-21T23:24:19.932Z,8.03
2023-02-21T23:26:47.694Z,8.05
2023-02-21T23:29:24.147Z,8.01
2023-02-21T23:31:52.078Z,7.88
2023-02-21T23:34:19.919Z,7.78
2023-02-21T23:36:46.850Z,7.86
2023-02-21T23:39:15.276Z,7.77
2023-02-21T23:41:44.326Z,7.45
2023-02-21T23:44:13.314Z,7.43
2023-02-21T23:46:42.658Z,7.53
2023-02-21T23:49:15.775Z,7.70
2023-02-21T23:51:43.927Z,7.72
2023-02-21T23:54:11.842Z,7.73
2023-02-21T23:56:40.303Z,7.54
2023-02-21T23:59:07.378Z,7.11
